sensor_id;sensor_type;location;lat;lon;timestamp;P1;durP1;ratioP1;P2;durP2;ratioP2
11187;SDS011;5650;52.700;7.306;2023-04-24T00:00:31;1.50;;;1.38;;
11187;SDS011;5650;52.700;7.306;2023-04-24T00:03:05;1.63;;;1.52;;
11187;SDS011;5650;52.700;7.306;2023-04-24T00:05:33;2.08;;;1.60;;
11187;SDS011;5650;52.700;7.306;2023-04-24T00:08:02;1.90;;;1.80;;
11187;SDS011;5650;52.700;7.306;2023-04-24T00:10:30;2.03;;;1.90;;
11187;SDS011;5650;52.700;7.306;2023-04-24T00:12:57;3.85;;;2.08;;
11187;SDS011;5650;52.700;7.306;2023-04-24T00:15:28;2.25;;;2.05;;
11187;SDS011;5650;52.700;7.306;2023-04-24T00:18:01;2.63;;;2.38;;
11187;SDS011;5650;52.700;7.306;2023-04-24T00:20:31;4.00;;;2.60;;
11187;SDS011;5650;52.700;7.306;2023-04-24T00:23:00;3.65;;;2.42;;
11187;SDS011;5650;52.700;7.306;2023-04-24T00:25:27;2.88;;;2.63;;
11187;SDS011;5650;52.700;7.306;2023-04-24T00:28:05;2.88;;;2.67;;
11187;SDS011;5650;52.700;7.306;2023-04-24T00:30:32;4.28;;;2.90;;
11187;SDS011;5650;52.700;7.306;2023-04-24T00:32:59;4.05;;;3.13;;
11187;SDS011;5650;52.700;7.306;2023-04-24T00:35:36;3.45;;;3.13;;
11187;SDS011;5650;52.700;7.306;2023-04-24T00:38:12;3.65;;;3.35;;
11187;SDS011;5650;52.700;7.306;2023-04-24T00:40:46;3.58;;;3.38;;
11187;SDS011;5650;52.700;7.306;2023-04-24T00:43:15;5.13;;;3.78;;
11187;SDS011;5650;52.700;7.306;2023-04-24T00:45:45;7.13;;;3.83;;
11187;SDS011;5650;52.700;7.306;2023-04-24T00:48:13;4.07;;;3.78;;
11187;SDS011;5650;52.700;7.306;2023-04-24T00:50:41;4.22;;;3.90;;
11187;SDS011;5650;52.700;7.306;2023-04-24T00:53:08;4.70;;;4.30;;
11187;SDS011;5650;52.700;7.306;2023-04-24T00:55:38;4.82;;;4.43;;
11187;SDS011;5650;52.700;7.306;2023-04-24T00:58:07;4.22;;;3.92;;
11187;SDS011;5650;52.700;7.306;2023-04-24T01:00:37;4.72;;;4.28;;
11187;SDS011;5650;52.700;7.306;2023-04-24T01:03:05;4.88;;;4.47;;
11187;SDS011;5650;52.700;7.306;2023-04-24T01:05:36;5.13;;;4.70;;
11187;SDS011;5650;52.700;7.306;2023-04-24T01:08:08;5.57;;;5.07;;
11187;SDS011;5650;52.700;7.306;2023-04-24T01:10:42;6.05;;;5.18;;
11187;SDS011;5650;52.700;7.306;2023-04-24T01:13:12;5.18;;;4.70;;
11187;SDS011;5650;52.700;7.306;2023-04-24T01:15:40;5.47;;;4.97;;
11187;SDS011;5650;52.700;7.306;2023-04-24T01:18:10;5.55;;;5.15;;
11187;SDS011;5650;52.700;7.306;2023-04-24T01:20:37;5.47;;;4.85;;
11187;SDS011;5650;52.700;7.306;2023-04-24T01:23:13;5.55;;;5.05;;
11187;SDS011;5650;52.700;7.306;2023-04-24T01:25:41;4.72;;;4.32;;
11187;SDS011;5650;52.700;7.306;2023-04-24T01:28:08;5.43;;;4.93;;
11187;SDS011;5650;52.700;7.306;2023-04-24T01:30:42;5.20;;;4.70;;
11187;SDS011;5650;52.700;7.306;2023-04-24T01:33:09;6.00;;;5.40;;
11187;SDS011;5650;52.700;7.306;2023-04-24T01:35:40;5.75;;;5.28;;
11187;SDS011;5650;52.700;7.306;2023-04-24T01:38:09;6.13;;;5.63;;
11187;SDS011;5650;52.700;7.306;2023-04-24T01:40:41;6.40;;;5.80;;
11187;SDS011;5650;52.700;7.306;2023-04-24T01:43:11;6.30;;;5.70;;
11187;SDS011;5650;52.700;7.306;2023-04-24T01:45:44;6.40;;;5.57;;
11187;SDS011;5650;52.700;7.306;2023-04-24T01:48:14;6.20;;;5.60;;
11187;SDS011;5650;52.700;7.306;2023-04-24T01:50:41;6.15;;;5.65;;
11187;SDS011;5650;52.700;7.306;2023-04-24T01:53:09;6.10;;;5.22;;
11187;SDS011;5650;52.700;7.306;2023-04-24T01:55:44;5.93;;;5.15;;
11187;SDS011;5650;52.700;7.306;2023-04-24T01:58:11;8.50;;;5.25;;
11187;SDS011;5650;52.700;7.306;2023-04-24T02:00:41;6.68;;;5.90;;
11187;SDS011;5650;52.700;7.306;2023-04-24T02:03:11;6.32;;;5.80;;
11187;SDS011;5650;52.700;7.306;2023-04-24T02:05:43;5.68;;;5.22;;
11187;SDS011;5650;52.700;7.306;2023-04-24T02:08:10;6.05;;;5.55;;
11187;SDS011;5650;52.700;7.306;2023-04-24T02:10:37;6.47;;;5.97;;
11187;SDS011;5650;52.700;7.306;2023-04-24T02:13:12;6.60;;;6.00;;
11187;SDS011;5650;52.700;7.306;2023-04-24T02:15:39;6.50;;;5.90;;
11187;SDS011;5650;52.700;7.306;2023-04-24T02:18:09;7.32;;;6.63;;
11187;SDS011;5650;52.700;7.306;2023-04-24T02:20:37;7.28;;;6.68;;
11187;SDS011;5650;52.700;7.306;2023-04-24T02:23:05;7.93;;;7.00;;
11187;SDS011;5650;52.700;7.306;2023-04-24T02:25:37;7.60;;;6.90;;
11187;SDS011;5650;52.700;7.306;2023-04-24T02:28:06;6.90;;;6.28;;
11187;SDS011;5650;52.700;7.306;2023-04-24T02:30:35;8.00;;;7.30;;
11187;SDS011;5650;52.700;7.306;2023-04-24T02:33:11;8.48;;;7.32;;
11187;SDS011;5650;52.700;7.306;2023-04-24T02:35:43;8.43;;;7.65;;
11187;SDS011;5650;52.700;7.306;2023-04-24T02:38:10;9.40;;;8.27;;
11187;SDS011;5650;52.700;7.306;2023-04-24T02:40:49;8.82;;;7.97;;
11187;SDS011;5650;52.700;7.306;2023-04-24T02:43:16;10.50;;;9.40;;
11187;SDS011;5650;52.700;7.306;2023-04-24T02:45:47;9.68;;;8.85;;
11187;SDS011;5650;52.700;7.306;2023-04-24T02:48:15;10.20;;;9.30;;
11187;SDS011;5650;52.700;7.306;2023-04-24T02:50:44;9.70;;;8.75;;
11187;SDS011;5650;52.700;7.306;2023-04-24T02:53:11;9.27;;;8.38;;
11187;SDS011;5650;52.700;7.306;2023-04-24T02:55:38;9.20;;;8.40;;
11187;SDS011;5650;52.700;7.306;2023-04-24T02:58:11;8.98;;;7.78;;
11187;SDS011;5650;52.700;7.306;2023-04-24T03:00:38;10.35;;;7.68;;
11187;SDS011;5650;52.700;7.306;2023-04-24T03:03:10;8.88;;;8.05;;
11187;SDS011;5650;52.700;7.306;2023-04-24T03:05:37;9.20;;;7.80;;
11187;SDS011;5650;52.700;7.306;2023-04-24T03:08:07;7.65;;;6.95;;
11187;SDS011;5650;52.700;7.306;2023-04-24T03:10:44;8.13;;;7.32;;
11187;SDS011;5650;52.700;7.306;2023-04-24T03:13:11;8.20;;;7.50;;
11187;SDS011;5650;52.700;7.306;2023-04-24T03:15:41;8.98;;;8.27;;
11187;SDS011;5650;52.700;7.306;2023-04-24T03:18:13;9.00;;;8.10;;
11187;SDS011;5650;52.700;7.306;2023-04-24T03:20:40;9.68;;;8.77;;
11187;SDS011;5650;52.700;7.306;2023-04-24T03:23:16;9.98;;;8.23;;
11187;SDS011;5650;52.700;7.306;2023-04-24T03:25:46;9.30;;;8.50;;
11187;SDS011;5650;52.700;7.306;2023-04-24T03:28:14;8.93;;;8.13;;
11187;SDS011;5650;52.700;7.306;2023-04-24T03:30:44;8.30;;;7.53;;
11187;SDS011;5650;52.700;7.306;2023-04-24T03:33:20;8.50;;;7.70;;
11187;SDS011;5650;52.700;7.306;2023-04-24T03:35:53;8.68;;;7.80;;
11187;SDS011;5650;52.700;7.306;2023-04-24T03:38:23;7.95;;;7.22;;
11187;SDS011;5650;52.700;7.306;2023-04-24T03:40:55;9.18;;;8.27;;
11187;SDS011;5650;52.700;7.306;2023-04-24T03:43:28;9.00;;;7.93;;
11187;SDS011;5650;52.700;7.306;2023-04-24T03:45:58;8.80;;;8.00;;
11187;SDS011;5650;52.700;7.306;2023-04-24T03:48:32;8.63;;;7.70;;
11187;SDS011;5650;52.700;7.306;2023-04-24T03:51:00;9.55;;;8.65;;
11187;SDS011;5650;52.700;7.306;2023-04-24T03:53:33;9.48;;;8.50;;
11187;SDS011;5650;52.700;7.306;2023-04-24T03:56:06;8.75;;;7.95;;
11187;SDS011;5650;52.700;7.306;2023-04-24T03:58:33;8.55;;;7.68;;
11187;SDS011;5650;52.700;7.306;2023-04-24T04:01:06;8.10;;;7.40;;
11187;SDS011;5650;52.700;7.306;2023-04-24T04:03:41;8.13;;;7.38;;
11187;SDS011;5650;52.700;7.306;2023-04-24T04:06:13;8.05;;;7.13;;
11187;SDS011;5650;52.700;7.306;2023-04-24T04:08:40;8.60;;;7.60;;
11187;SDS011;5650;52.700;7.306;2023-04-24T04:11:07;8.20;;;7.30;;
11187;SDS011;5650;52.700;7.306;2023-04-24T04:13:37;9.65;;;7.72;;
11187;SDS011;5650;52.700;7.306;2023-04-24T04:16:05;9.23;;;8.32;;
11187;SDS011;5650;52.700;7.306;2023-04-24T04:18:35;8.00;;;7.30;;
11187;SDS011;5650;52.700;7.306;2023-04-24T04:21:07;8.48;;;7.72;;
11187;SDS011;5650;52.700;7.306;2023-04-24T04:23:34;8.63;;;7.82;;
11187;SDS011;5650;52.700;7.306;2023-04-24T04:26:01;9.45;;;8.35;;
11187;SDS011;5650;52.700;7.306;2023-04-24T04:28:36;9.23;;;8.43;;
11187;SDS011;5650;52.700;7.306;2023-04-24T04:31:09;8.65;;;7.82;;
11187;SDS011;5650;52.700;7.306;2023-04-24T04:33:39;8.38;;;7.57;;
11187;SDS011;5650;52.700;7.306;2023-04-24T04:36:08;8.68;;;7.80;;
11187;SDS011;5650;52.700;7.306;2023-04-24T04:38:47;8.93;;;8.13;;
11187;SDS011;5650;52.700;7.306;2023-04-24T04:41:14;8.73;;;7.93;;
11187;SDS011;5650;52.700;7.306;2023-04-24T04:43:46;8.95;;;8.25;;
11187;SDS011;5650;52.700;7.306;2023-04-24T04:46:13;9.40;;;7.90;;
11187;SDS011;5650;52.700;7.306;2023-04-24T04:48:44;8.68;;;7.63;;
11187;SDS011;5650;52.700;7.306;2023-04-24T04:51:12;10.90;;;8.65;;
11187;SDS011;5650;52.700;7.306;2023-04-24T04:53:39;10.02;;;8.90;;
11187;SDS011;5650;52.700;7.306;2023-04-24T04:56:07;9.98;;;9.00;;
11187;SDS011;5650;52.700;7.306;2023-04-24T04:58:34;13.88;;;9.23;;
11187;SDS011;5650;52.700;7.306;2023-04-24T05:01:04;10.07;;;9.02;;
11187;SDS011;5650;52.700;7.306;2023-04-24T05:03:34;9.90;;;8.90;;
11187;SDS011;5650;52.700;7.306;2023-04-24T05:06:10;12.18;;;9.57;;
11187;SDS011;5650;52.700;7.306;2023-04-24T05:08:42;11.32;;;9.13;;
11187;SDS011;5650;52.700;7.306;2023-04-24T05:11:13;10.68;;;9.57;;
11187;SDS011;5650;52.700;7.306;2023-04-24T05:13:41;10.93;;;9.90;;
11187;SDS011;5650;52.700;7.306;2023-04-24T05:16:10;10.60;;;9.57;;
11187;SDS011;5650;52.700;7.306;2023-04-24T05:18:40;10.95;;;9.82;;
11187;SDS011;5650;52.700;7.306;2023-04-24T05:21:07;10.60;;;9.50;;
11187;SDS011;5650;52.700;7.306;2023-04-24T05:23:36;10.88;;;9.52;;
11187;SDS011;5650;52.700;7.306;2023-04-24T05:26:03;12.02;;;10.15;;
11187;SDS011;5650;52.700;7.306;2023-04-24T05:28:33;10.85;;;9.75;;
11187;SDS011;5650;52.700;7.306;2023-04-24T05:31:01;11.65;;;10.55;;
11187;SDS011;5650;52.700;7.306;2023-04-24T05:33:35;13.95;;;11.20;;
11187;SDS011;5650;52.700;7.306;2023-04-24T05:36:02;11.52;;;10.43;;
11187;SDS011;5650;52.700;7.306;2023-04-24T05:38:33;12.48;;;10.82;;
11187;SDS011;5650;52.700;7.306;2023-04-24T05:41:04;11.93;;;10.82;;
11187;SDS011;5650;52.700;7.306;2023-04-24T05:43:44;12.77;;;11.10;;
11187;SDS011;5650;52.700;7.306;2023-04-24T05:46:11;12.43;;;10.52;;
11187;SDS011;5650;52.700;7.306;2023-04-24T05:48:38;11.75;;;9.98;;
11187;SDS011;5650;52.700;7.306;2023-04-24T05:51:11;12.02;;;10.57;;
11187;SDS011;5650;52.700;7.306;2023-04-24T05:53:43;11.75;;;10.05;;
11187;SDS011;5650;52.700;7.306;2023-04-24T05:56:13;11.80;;;10.60;;
11187;SDS011;5650;52.700;7.306;2023-04-24T05:58:40;12.75;;;10.30;;
11187;SDS011;5650;52.700;7.306;2023-04-24T06:01:07;12.68;;;11.10;;
11187;SDS011;5650;52.700;7.306;2023-04-24T06:03:42;12.60;;;11.30;;
11187;SDS011;5650;52.700;7.306;2023-04-24T06:06:15;14.93;;;12.50;;
11187;SDS011;5650;52.700;7.306;2023-04-24T06:08:44;13.27;;;11.90;;
11187;SDS011;5650;52.700;7.306;2023-04-24T06:11:11;15.15;;;13.68;;
11187;SDS011;5650;52.700;7.306;2023-04-24T06:13:38;14.90;;;13.48;;
11187;SDS011;5650;52.700;7.306;2023-04-24T06:16:11;15.18;;;13.60;;
11187;SDS011;5650;52.700;7.306;2023-04-24T06:18:38;14.50;;;12.93;;
11187;SDS011;5650;52.700;7.306;2023-04-24T06:21:05;15.82;;;13.82;;
11187;SDS011;5650;52.700;7.306;2023-04-24T06:23:32;15.32;;;13.82;;
11187;SDS011;5650;52.700;7.306;2023-04-24T06:26:07;15.27;;;13.73;;
11187;SDS011;5650;52.700;7.306;2023-04-24T06:28:34;15.57;;;13.98;;
11187;SDS011;5650;52.700;7.306;2023-04-24T06:31:02;14.18;;;12.57;;
11187;SDS011;5650;52.700;7.306;2023-04-24T06:33:35;14.60;;;13.20;;
11187;SDS011;5650;52.700;7.306;2023-04-24T06:36:05;14.82;;;13.32;;
11187;SDS011;5650;52.700;7.306;2023-04-24T06:38:32;13.93;;;12.52;;
11187;SDS011;5650;52.700;7.306;2023-04-24T06:41:06;13.23;;;11.73;;
11187;SDS011;5650;52.700;7.306;2023-04-24T06:43:34;13.07;;;11.77;;
11187;SDS011;5650;52.700;7.306;2023-04-24T06:46:01;12.48;;;11.15;;
11187;SDS011;5650;52.700;7.306;2023-04-24T06:48:41;13.23;;;11.13;;
11187;SDS011;5650;52.700;7.306;2023-04-24T06:51:08;11.13;;;10.15;;
11187;SDS011;5650;52.700;7.306;2023-04-24T06:53:35;11.68;;;10.20;;
11187;SDS011;5650;52.700;7.306;2023-04-24T06:56:02;11.07;;;9.00;;
11187;SDS011;5650;52.700;7.306;2023-04-24T06:58:31;9.25;;;8.32;;
11187;SDS011;5650;52.700;7.306;2023-04-24T07:00:59;8.88;;;8.05;;
11187;SDS011;5650;52.700;7.306;2023-04-24T07:03:26;9.32;;;8.13;;
11187;SDS011;5650;52.700;7.306;2023-04-24T07:05:56;10.35;;;8.20;;
11187;SDS011;5650;52.700;7.306;2023-04-24T07:08:23;9.30;;;8.50;;
11187;SDS011;5650;52.700;7.306;2023-04-24T07:10:50;11.35;;;9.68;;
11187;SDS011;5650;52.700;7.306;2023-04-24T07:13:21;10.95;;;8.98;;
11187;SDS011;5650;52.700;7.306;2023-04-24T07:15:55;9.23;;;7.97;;
11187;SDS011;5650;52.700;7.306;2023-04-24T07:18:23;8.98;;;8.20;;
11187;SDS011;5650;52.700;7.306;2023-04-24T07:20:50;11.05;;;9.57;;
11187;SDS011;5650;52.700;7.306;2023-04-24T07:23:17;10.27;;;9.27;;
11187;SDS011;5650;52.700;7.306;2023-04-24T07:25:46;10.18;;;9.18;;
11187;SDS011;5650;52.700;7.306;2023-04-24T07:28:13;10.50;;;9.20;;
11187;SDS011;5650;52.700;7.306;2023-04-24T07:30:45;10.63;;;9.00;;
11187;SDS011;5650;52.700;7.306;2023-04-24T07:33:14;11.25;;;9.18;;
11187;SDS011;5650;52.700;7.306;2023-04-24T07:35:41;11.95;;;9.55;;
11187;SDS011;5650;52.700;7.306;2023-04-24T07:38:11;10.32;;;9.13;;
11187;SDS011;5650;52.700;7.306;2023-04-24T07:40:41;11.20;;;9.75;;
11187;SDS011;5650;52.700;7.306;2023-04-24T07:43:12;9.95;;;8.95;;
11187;SDS011;5650;52.700;7.306;2023-04-24T07:45:42;11.38;;;9.32;;
11187;SDS011;5650;52.700;7.306;2023-04-24T07:48:14;10.43;;;9.32;;
11187;SDS011;5650;52.700;7.306;2023-04-24T07:50:42;9.93;;;8.90;;
11187;SDS011;5650;52.700;7.306;2023-04-24T07:53:10;11.73;;;8.40;;
11187;SDS011;5650;52.700;7.306;2023-04-24T07:55:37;10.63;;;8.90;;
11187;SDS011;5650;52.700;7.306;2023-04-24T07:58:04;9.30;;;8.40;;
11187;SDS011;5650;52.700;7.306;2023-04-24T08:00:34;10.48;;;8.50;;
11187;SDS011;5650;52.700;7.306;2023-04-24T08:03:01;8.85;;;7.82;;
11187;SDS011;5650;52.700;7.306;2023-04-24T08:05:30;8.75;;;7.78;;
11187;SDS011;5650;52.700;7.306;2023-04-24T08:08:06;10.52;;;8.23;;
11187;SDS011;5650;52.700;7.306;2023-04-24T08:10:37;8.90;;;7.82;;
11187;SDS011;5650;52.700;7.306;2023-04-24T08:13:04;9.13;;;8.23;;
11187;SDS011;5650;52.700;7.306;2023-04-24T08:15:32;16.55;;;8.90;;
11187;SDS011;5650;52.700;7.306;2023-04-24T08:18:02;9.27;;;8.35;;
11187;SDS011;5650;52.700;7.306;2023-04-24T08:20:30;8.85;;;7.95;;
11187;SDS011;5650;52.700;7.306;2023-04-24T08:22:57;8.35;;;7.38;;
11187;SDS011;5650;52.700;7.306;2023-04-24T08:25:27;9.10;;;8.20;;
11187;SDS011;5650;52.700;7.306;2023-04-24T08:27:55;8.77;;;8.00;;
11187;SDS011;5650;52.700;7.306;2023-04-24T08:30:22;9.80;;;8.10;;
11187;SDS011;5650;52.700;7.306;2023-04-24T08:32:55;10.63;;;8.32;;
11187;SDS011;5650;52.700;7.306;2023-04-24T08:35:24;8.75;;;7.85;;
11187;SDS011;5650;52.700;7.306;2023-04-24T08:37:53;9.13;;;8.10;;
11187;SDS011;5650;52.700;7.306;2023-04-24T08:40:27;9.10;;;8.20;;
11187;SDS011;5650;52.700;7.306;2023-04-24T08:42:58;8.85;;;7.72;;
11187;SDS011;5650;52.700;7.306;2023-04-24T08:45:28;8.82;;;6.97;;
11187;SDS011;5650;52.700;7.306;2023-04-24T08:47:55;9.30;;;7.68;;
11187;SDS011;5650;52.700;7.306;2023-04-24T08:50:32;8.57;;;7.28;;
11187;SDS011;5650;52.700;7.306;2023-04-24T08:53:02;9.30;;;7.60;;
11187;SDS011;5650;52.700;7.306;2023-04-24T08:55:33;7.75;;;6.80;;
11187;SDS011;5650;52.700;7.306;2023-04-24T08:58:00;13.40;;;6.40;;
11187;SDS011;5650;52.700;7.306;2023-04-24T09:00:34;6.82;;;5.97;;
11187;SDS011;5650;52.700;7.306;2023-04-24T09:03:01;7.30;;;5.85;;
11187;SDS011;5650;52.700;7.306;2023-04-24T09:05:33;6.30;;;5.57;;
11187;SDS011;5650;52.700;7.306;2023-04-24T09:08:04;9.10;;;5.70;;
11187;SDS011;5650;52.700;7.306;2023-04-24T09:10:33;12.43;;;5.10;;
11187;SDS011;5650;52.700;7.306;2023-04-24T09:13:01;4.97;;;3.65;;
11187;SDS011;5650;52.700;7.306;2023-04-24T09:15:28;5.78;;;2.95;;
11187;SDS011;5650;52.700;7.306;2023-04-24T09:17:56;3.40;;;2.80;;
11187;SDS011;5650;52.700;7.306;2023-04-24T09:20:33;2.97;;;2.35;;
11187;SDS011;5650;52.700;7.306;2023-04-24T09:23:14;3.78;;;1.90;;
11187;SDS011;5650;52.700;7.306;2023-04-24T09:25:50;1.80;;;1.38;;
11187;SDS011;5650;52.700;7.306;2023-04-24T09:28:29;5.07;;;1.63;;
11187;SDS011;5650;52.700;7.306;2023-04-24T09:31:07;1.60;;;1.27;;
11187;SDS011;5650;52.700;7.306;2023-04-24T09:33:39;4.07;;;1.67;;
11187;SDS011;5650;52.700;7.306;2023-04-24T09:36:19;3.28;;;1.55;;
11187;SDS011;5650;52.700;7.306;2023-04-24T09:38:58;3.67;;;1.70;;
11187;SDS011;5650;52.700;7.306;2023-04-24T09:41:26;2.42;;;2.15;;
11187;SDS011;5650;52.700;7.306;2023-04-24T09:43:58;3.83;;;2.20;;
11187;SDS011;5650;52.700;7.306;2023-04-24T09:46:49;6.47;;;4.88;;
11187;SDS011;5650;52.700;7.306;2023-04-24T09:49:21;6.40;;;4.60;;
11187;SDS011;5650;52.700;7.306;2023-04-24T09:52:03;5.30;;;4.70;;
11187;SDS011;5650;52.700;7.306;2023-04-24T09:54:33;8.02;;;4.80;;
11187;SDS011;5650;52.700;7.306;2023-04-24T09:57:07;7.55;;;5.47;;
11187;SDS011;5650;52.700;7.306;2023-04-24T09:59:41;7.53;;;5.35;;
11187;SDS011;5650;52.700;7.306;2023-04-24T10:02:18;7.43;;;6.05;;
11187;SDS011;5650;52.700;7.306;2023-04-24T10:04:53;10.50;;;7.00;;
11187;SDS011;5650;52.700;7.306;2023-04-24T10:07:25;8.35;;;6.53;;
11187;SDS011;5650;52.700;7.306;2023-04-24T10:09:54;12.95;;;7.45;;
11187;SDS011;5650;52.700;7.306;2023-04-24T10:12:24;10.63;;;8.20;;
11187;SDS011;5650;52.700;7.306;2023-04-24T10:15:01;11.23;;;7.90;;
11187;SDS011;5650;52.700;7.306;2023-04-24T10:17:33;10.30;;;7.68;;
11187;SDS011;5650;52.700;7.306;2023-04-24T10:20:02;12.85;;;8.05;;
11187;SDS011;5650;52.700;7.306;2023-04-24T10:22:32;11.48;;;8.02;;
11187;SDS011;5650;52.700;7.306;2023-04-24T10:25:01;13.02;;;8.35;;
11187;SDS011;5650;52.700;7.306;2023-04-24T10:27:43;10.60;;;7.30;;
11187;SDS011;5650;52.700;7.306;2023-04-24T10:30:15;12.63;;;9.40;;
11187;SDS011;5650;52.700;7.306;2023-04-24T10:32:44;15.43;;;11.07;;
11187;SDS011;5650;52.700;7.306;2023-04-24T10:35:13;18.35;;;12.27;;
11187;SDS011;5650;52.700;7.306;2023-04-24T10:37:45;15.60;;;11.35;;
11187;SDS011;5650;52.700;7.306;2023-04-24T10:40:17;14.75;;;11.45;;
11187;SDS011;5650;52.700;7.306;2023-04-24T10:42:46;20.45;;;12.52;;
11187;SDS011;5650;52.700;7.306;2023-04-24T10:45:17;20.13;;;13.80;;
11187;SDS011;5650;52.700;7.306;2023-04-24T10:48:01;17.48;;;11.98;;
11187;SDS011;5650;52.700;7.306;2023-04-24T10:50:42;15.90;;;12.70;;
11187;SDS011;5650;52.700;7.306;2023-04-24T10:53:14;16.15;;;12.70;;
11187;SDS011;5650;52.700;7.306;2023-04-24T10:55:48;17.52;;;12.82;;
11187;SDS011;5650;52.700;7.306;2023-04-24T10:58:21;14.75;;;11.50;;
11187;SDS011;5650;52.700;7.306;2023-04-24T11:00:58;15.93;;;11.27;;
11187;SDS011;5650;52.700;7.306;2023-04-24T11:03:26;13.45;;;10.43;;
11187;SDS011;5650;52.700;7.306;2023-04-24T11:05:56;14.98;;;10.27;;
11187;SDS011;5650;52.700;7.306;2023-04-24T11:08:32;15.85;;;10.15;;
11187;SDS011;5650;52.700;7.306;2023-04-24T11:11:14;19.80;;;9.75;;
11187;SDS011;5650;52.700;7.306;2023-04-24T11:14:02;15.13;;;9.38;;
11187;SDS011;5650;52.700;7.306;2023-04-24T11:16:35;12.30;;;9.40;;
11187;SDS011;5650;52.700;7.306;2023-04-24T11:19:08;11.85;;;9.00;;
11187;SDS011;5650;52.700;7.306;2023-04-24T11:21:40;11.20;;;8.48;;
11187;SDS011;5650;52.700;7.306;2023-04-24T11:24:27;15.88;;;8.30;;
11187;SDS011;5650;52.700;7.306;2023-04-24T11:26:58;11.45;;;7.13;;
11187;SDS011;5650;52.700;7.306;2023-04-24T11:29:39;14.07;;;7.68;;
11187;SDS011;5650;52.700;7.306;2023-04-24T11:35:02;14.65;;;7.88;;
11187;SDS011;5650;52.700;7.306;2023-04-24T11:37:42;13.55;;;6.45;;
11187;SDS011;5650;52.700;7.306;2023-04-24T11:40:11;12.07;;;6.18;;
11187;SDS011;5650;52.700;7.306;2023-04-24T11:42:42;9.88;;;6.63;;
11187;SDS011;5650;52.700;7.306;2023-04-24T11:45:11;13.43;;;7.43;;
11187;SDS011;5650;52.700;7.306;2023-04-24T11:47:50;12.88;;;6.15;;
11187;SDS011;5650;52.700;7.306;2023-04-24T11:50:18;13.50;;;5.43;;
11187;SDS011;5650;52.700;7.306;2023-04-24T11:52:48;11.85;;;4.65;;
11187;SDS011;5650;52.700;7.306;2023-04-24T11:55:26;10.95;;;4.43;;
11187;SDS011;5650;52.700;7.306;2023-04-24T11:58:02;9.00;;;4.60;;
11187;SDS011;5650;52.700;7.306;2023-04-24T12:00:29;14.27;;;4.30;;
11187;SDS011;5650;52.700;7.306;2023-04-24T12:03:06;15.30;;;4.50;;
11187;SDS011;5650;52.700;7.306;2023-04-24T12:05:34;15.68;;;4.13;;
11187;SDS011;5650;52.700;7.306;2023-04-24T12:08:02;7.70;;;3.92;;
11187;SDS011;5650;52.700;7.306;2023-04-24T12:10:34;18.42;;;4.30;;
11187;SDS011;5650;52.700;7.306;2023-04-24T12:13:04;12.18;;;3.50;;
11187;SDS011;5650;52.700;7.306;2023-04-24T12:15:31;14.23;;;3.88;;
11187;SDS011;5650;52.700;7.306;2023-04-24T12:18:04;14.95;;;4.13;;
11187;SDS011;5650;52.700;7.306;2023-04-24T12:20:32;7.05;;;3.17;;
11187;SDS011;5650;52.700;7.306;2023-04-24T12:23:00;10.73;;;3.38;;
11187;SDS011;5650;52.700;7.306;2023-04-24T12:25:31;7.95;;;2.60;;
11187;SDS011;5650;52.700;7.306;2023-04-24T12:28:10;7.68;;;2.28;;
11187;SDS011;5650;52.700;7.306;2023-04-24T12:30:40;11.35;;;2.83;;
11187;SDS011;5650;52.700;7.306;2023-04-24T12:33:09;9.23;;;2.90;;
11187;SDS011;5650;52.700;7.306;2023-04-24T12:35:45;12.73;;;3.55;;
11187;SDS011;5650;52.700;7.306;2023-04-24T12:38:15;10.73;;;2.90;;
11187;SDS011;5650;52.700;7.306;2023-04-24T12:40:43;7.80;;;2.60;;
11187;SDS011;5650;52.700;7.306;2023-04-24T12:43:15;9.43;;;2.95;;
11187;SDS011;5650;52.700;7.306;2023-04-24T12:45:49;9.35;;;2.88;;
11187;SDS011;5650;52.700;7.306;2023-04-24T12:48:16;7.72;;;2.63;;
11187;SDS011;5650;52.700;7.306;2023-04-24T12:50:45;8.05;;;2.90;;
11187;SDS011;5650;52.700;7.306;2023-04-24T12:53:12;7.22;;;2.75;;
11187;SDS011;5650;52.700;7.306;2023-04-24T12:55:59;10.38;;;2.88;;
11187;SDS011;5650;52.700;7.306;2023-04-24T12:58:35;11.23;;;2.85;;
11187;SDS011;5650;52.700;7.306;2023-04-24T13:01:02;11.70;;;3.00;;
11187;SDS011;5650;52.700;7.306;2023-04-24T13:03:38;6.25;;;2.60;;
11187;SDS011;5650;52.700;7.306;2023-04-24T13:06:08;9.52;;;2.33;;
11187;SDS011;5650;52.700;7.306;2023-04-24T13:08:42;6.40;;;2.30;;
11187;SDS011;5650;52.700;7.306;2023-04-24T13:11:09;7.60;;;2.30;;
11187;SDS011;5650;52.700;7.306;2023-04-24T13:13:44;6.13;;;2.33;;
11187;SDS011;5650;52.700;7.306;2023-04-24T13:16:11;10.40;;;3.00;;
11187;SDS011;5650;52.700;7.306;2023-04-24T13:18:38;8.73;;;2.63;;
11187;SDS011;5650;52.700;7.306;2023-04-24T13:21:05;8.57;;;2.55;;
11187;SDS011;5650;52.700;7.306;2023-04-24T13:23:32;11.45;;;2.90;;
11187;SDS011;5650;52.700;7.306;2023-04-24T13:26:00;6.97;;;2.22;;
11187;SDS011;5650;52.700;7.306;2023-04-24T13:28:28;8.35;;;2.50;;
11187;SDS011;5650;52.700;7.306;2023-04-24T13:30:57;8.25;;;2.35;;
11187;SDS011;5650;52.700;7.306;2023-04-24T13:33:24;10.15;;;2.40;;
11187;SDS011;5650;52.700;7.306;2023-04-24T13:35:51;7.05;;;2.13;;
11187;SDS011;5650;52.700;7.306;2023-04-24T13:38:19;7.05;;;2.33;;
11187;SDS011;5650;52.700;7.306;2023-04-24T13:40:47;5.40;;;1.73;;
11187;SDS011;5650;52.700;7.306;2023-04-24T13:43:14;3.65;;;1.55;;
11187;SDS011;5650;52.700;7.306;2023-04-24T13:45:41;7.05;;;1.70;;
11187;SDS011;5650;52.700;7.306;2023-04-24T13:48:11;3.70;;;1.55;;
11187;SDS011;5650;52.700;7.306;2023-04-24T13:50:40;5.07;;;1.55;;
11187;SDS011;5650;52.700;7.306;2023-04-24T13:53:07;4.20;;;1.20;;
11187;SDS011;5650;52.700;7.306;2023-04-24T13:55:34;3.80;;;1.40;;
11187;SDS011;5650;52.700;7.306;2023-04-24T13:58:04;5.93;;;1.70;;
11187;SDS011;5650;52.700;7.306;2023-04-24T14:00:31;2.40;;;1.20;;
11187;SDS011;5650;52.700;7.306;2023-04-24T14:02:58;6.30;;;1.50;;
11187;SDS011;5650;52.700;7.306;2023-04-24T14:05:27;6.18;;;1.63;;
11187;SDS011;5650;52.700;7.306;2023-04-24T14:08:04;4.63;;;1.23;;
11187;SDS011;5650;52.700;7.306;2023-04-24T14:10:35;3.90;;;1.17;;
11187;SDS011;5650;52.700;7.306;2023-04-24T14:13:02;6.78;;;1.60;;
11187;SDS011;5650;52.700;7.306;2023-04-24T14:15:30;5.20;;;1.67;;
11187;SDS011;5650;52.700;7.306;2023-04-24T14:17:58;3.83;;;1.38;;
11187;SDS011;5650;52.700;7.306;2023-04-24T14:20:25;4.57;;;1.77;;
11187;SDS011;5650;52.700;7.306;2023-04-24T14:22:54;5.25;;;1.48;;
11187;SDS011;5650;52.700;7.306;2023-04-24T14:25:24;4.93;;;1.50;;
11187;SDS011;5650;52.700;7.306;2023-04-24T14:27:51;5.90;;;2.10;;
11187;SDS011;5650;52.700;7.306;2023-04-24T14:30:18;7.10;;;1.80;;
11187;SDS011;5650;52.700;7.306;2023-04-24T14:32:46;7.07;;;1.90;;
11187;SDS011;5650;52.700;7.306;2023-04-24T14:35:13;5.63;;;1.70;;
11187;SDS011;5650;52.700;7.306;2023-04-24T14:37:40;9.48;;;2.00;;
11187;SDS011;5650;52.700;7.306;2023-04-24T14:40:10;5.63;;;1.90;;
11187;SDS011;5650;52.700;7.306;2023-04-24T14:42:37;6.70;;;1.83;;
11187;SDS011;5650;52.700;7.306;2023-04-24T14:45:05;6.45;;;1.83;;
11187;SDS011;5650;52.700;7.306;2023-04-24T14:47:33;5.47;;;1.55;;
11187;SDS011;5650;52.700;7.306;2023-04-24T14:50:00;5.82;;;1.70;;
11187;SDS011;5650;52.700;7.306;2023-04-24T14:52:28;22.75;;;12.40;;
11187;SDS011;5650;52.700;7.306;2023-04-24T14:54:55;11.85;;;2.67;;
11187;SDS011;5650;52.700;7.306;2023-04-24T14:57:23;9.00;;;2.13;;
11187;SDS011;5650;52.700;7.306;2023-04-24T14:59:51;4.05;;;1.08;;
11187;SDS011;5650;52.700;7.306;2023-04-24T15:02:18;3.42;;;1.48;;
11187;SDS011;5650;52.700;7.306;2023-04-24T15:04:46;4.63;;;1.73;;
11187;SDS011;5650;52.700;7.306;2023-04-24T15:07:13;6.00;;;1.63;;
11187;SDS011;5650;52.700;7.306;2023-04-24T15:09:40;9.35;;;1.85;;
11187;SDS011;5650;52.700;7.306;2023-04-24T15:12:08;7.78;;;2.03;;
11187;SDS011;5650;52.700;7.306;2023-04-24T15:14:38;6.07;;;2.22;;
11187;SDS011;5650;52.700;7.306;2023-04-24T15:17:06;7.25;;;2.78;;